Time;durP1;ratioP1;P1;durP2;ratioP2;P2;SDS_P1;SDS_P2;PMS_P1;PMS_P2;Temp;Humidity;BMP_temperature;BMP_pressure;BME280_temperature;BME280_humidity;BME280_pressure;Samples;Min_cycle;Max_cycle;Signal;HPM_P1;HPM_P2
2021/12/12 00:01:33;;;;;;;67.40;37.78;;;;;;;;;;4894839;29;20017;-77
2021/12/12 00:04:13;;;;;;;72.75;38.25;;;;;;;;;;4893307;29;20111;-77
2021/12/12 00:06:59;;;;;;;69.15;37.40;;;;;;;;;;4919190;29;20021;-77
2021/12/12 00:09:40;;;;;;;71.18;38.65;;;;;;;;;;4936302;29;20061;-77
2021/12/12 00:12:11;;;;;;;59.72;34.78;;;;;;;;;;4935398;29;20032;-77
2021/12/12 00:14:39;;;;;;;63.70;34.30;;;;;;;;;;4938734;29;20036;-77
2021/12/12 00:17:06;;;;;;;58.33;32.97;;;;;;;;;;4933877;29;20035;-77
2021/12/12 00:19:56;;;;;;;62.00;34.75;;;;;;;;;;4919094;29;20039;-77
2021/12/12 00:22:23;;;;;;;61.22;34.38;;;;;;;;;;4927791;29;20069;-77
2021/12/12 00:25:13;;;;;;;57.63;33.55;;;;;;;;;;4938399;29;20130;-77
2021/12/12 00:30:28;;;;;;;56.65;32.60;;;;;;;;;;4953398;23;20042;-77
2021/12/12 00:32:54;;;;;;;56.90;34.17;;;;;;;;;;4929478;29;20135;-77
2021/12/12 00:35:20;;;;;;;69.05;38.03;;;;;;;;;;4937554;29;20021;-77
2021/12/12 00:37:48;;;;;;;62.42;33.53;;;;;;;;;;4938173;29;20032;-77
2021/12/12 00:40:26;;;;;;;64.15;35.03;;;;;;;;;;4938061;29;20063;-77
2021/12/12 00:43:13;;;;;;;63.05;35.75;;;;;;;;;;4954699;29;20056;-77
2021/12/12 00:45:42;;;;;;;65.28;35.70;;;;;;;;;;4952895;29;20161;-77
2021/12/12 00:48:13;;;;;;;60.55;35.72;;;;;;;;;;4930422;29;20031;-77
2021/12/12 00:51:05;;;;;;;61.53;35.00;;;;;;;;;;4921005;28;20112;-77
2021/12/12 00:53:34;;;;;;;61.15;33.30;;;;;;;;;;4943412;29;20036;-76
2021/12/12 00:56:06;;;;;;;59.38;34.13;;;;;;;;;;4925025;29;20087;-77
2021/12/12 00:58:48;;;;;;;56.50;32.40;;;;;;;;;;4943813;29;20036;-77
2021/12/12 01:01:23;;;;;;;52.45;31.75;;;;;;;;;;4954488;29;20012;-77
2021/12/12 01:04:40;;;;;;;57.53;32.65;;;;;;;;;;4956571;29;20129;-77
2021/12/12 01:07:47;;;;;;;49.42;31.33;;;;;;;;;;4862376;29;20026;-77
2021/12/12 01:10:52;;;;;;;60.78;34.40;;;;;;;;;;4845442;29;20053;-77
2021/12/12 01:13:22;;;;;;;59.90;32.83;;;;;;;;;;4859317;29;20021;-77
2021/12/12 01:16:09;;;;;;;52.60;31.52;;;;;;;;;;4857819;29;20057;-77
2021/12/12 01:18:51;;;;;;;52.40;30.92;;;;;;;;;;4858061;29;20034;-77
2021/12/12 01:21:49;;;;;;;53.00;32.30;;;;;;;;;;4862122;29;20062;-77
2021/12/12 01:24:24;;;;;;;48.92;30.88;;;;;;;;;;4848406;29;20059;-78
2021/12/12 01:26:53;;;;;;;50.90;30.90;;;;;;;;;;4847080;29;20097;-77
2021/12/12 01:29:39;;;;;;;48.63;30.55;;;;;;;;;;4862733;29;20046;-77
2021/12/12 01:32:11;;;;;;;51.35;29.10;;;;;;;;;;4845838;29;20054;-77
2021/12/12 01:35:15;;;;;;;46.45;29.15;;;;;;;;;;4855124;29;20023;-77
2021/12/12 01:38:51;;;;;;;51.00;29.70;;;;;;;;;;4856293;29;20050;-77
2021/12/12 01:40:37;;;;;;;44.13;28.15;;;;;;;;;;4856296;29;20034;-77
2021/12/12 01:43:10;;;;;;;46.70;29.40;;;;;;;;;;4856907;29;20029;-77
2021/12/12 01:46:00;;;;;;;44.72;27.02;;;;;;;;;;4891345;29;20048;-77
2021/12/12 01:48:34;;;;;;;42.42;27.65;;;;;;;;;;4894663;29;20013;-77
2021/12/12 01:51:06;;;;;;;50.97;30.48;;;;;;;;;;4902592;29;20044;-77
2021/12/12 01:53:38;;;;;;;44.63;27.60;;;;;;;;;;4905202;29;20017;-77
2021/12/12 01:56:11;;;;;;;45.00;28.10;;;;;;;;;;4884614;29;20114;-79
2021/12/12 01:59:06;;;;;;;47.00;28.98;;;;;;;;;;4886333;29;20022;-77
2021/12/12 02:01:52;;;;;;;;;;;;;;;;;;4899211;29;20029;-77
2021/12/12 02:04:33;;;;;;;46.40;27.13;;;;;;;;;;4904206;29;19904;-76
2021/12/12 02:07:22;;;;;;;42.75;26.67;;;;;;;;;;4919640;29;20096;-77
2021/12/12 02:10:11;;;;;;;45.88;27.75;;;;;;;;;;4921341;29;20043;-77
2021/12/12 02:12:38;;;;;;;49.40;30.50;;;;;;;;;;4917071;28;20042;-77
2021/12/12 02:15:08;;;;;;;46.42;28.42;;;;;;;;;;4927017;29;20083;-77
2021/12/12 02:17:43;;;;;;;45.22;28.15;;;;;;;;;;4918488;29;20044;-77
2021/12/12 02:20:42;;;;;;;44.85;27.02;;;;;;;;;;4923637;29;20036;-77
2021/12/12 02:23:42;;;;;;;46.47;26.80;;;;;;;;;;4917618;29;20036;-77
2021/12/12 02:37:28;;;;;;;42.45;24.98;;;;;;;;;;4916559;29;20134;-77
2021/12/12 02:40:10;;;;;;;44.03;27.50;;;;;;;;;;4918262;29;20043;-77
2021/12/12 02:42:37;;;;;;;42.35;26.17;;;;;;;;;;4983165;23;20028;-77
2021/12/12 02:45:04;;;;;;;43.78;25.88;;;;;;;;;;4985664;28;20115;-77
2021/12/12 02:47:38;;;;;;;40.55;25.48;;;;;;;;;;4946794;28;20058;-77
2021/12/12 02:50:13;;;;;;;40.92;26.00;;;;;;;;;;4961979;28;20062;-77
2021/12/12 02:52:44;;;;;;;43.88;26.00;;;;;;;;;;4958548;28;20019;-77
2021/12/12 02:55:15;;;;;;;47.75;27.65;;;;;;;;;;4979288;28;20031;-77
2021/12/12 02:57:42;;;;;;;42.20;25.35;;;;;;;;;;4974846;28;20033;-77
2021/12/12 03:00:10;;;;;;;41.25;25.88;;;;;;;;;;4979975;28;20035;-77
2021/12/12 03:02:45;;;;;;;43.22;27.60;;;;;;;;;;5033236;23;20047;-78
2021/12/12 03:05:14;;;;;;;40.85;25.20;;;;;;;;;;4945578;28;20219;-77
2021/12/12 03:07:50;;;;;;;39.70;24.92;;;;;;;;;;4945904;28;20075;-77
2021/12/12 03:10:39;;;;;;;42.28;26.30;;;;;;;;;;4923428;29;20050;-77
2021/12/12 03:13:39;;;;;;;42.28;26.58;;;;;;;;;;4921415;29;20016;-77
2021/12/12 03:16:37;;;;;;;46.70;27.52;;;;;;;;;;4916682;29;20025;-77
2021/12/12 03:19:04;;;;;;;41.53;26.30;;;;;;;;;;4903279;29;20025;-78
2021/12/12 03:22:03;;;;;;;47.22;28.38;;;;;;;;;;4885447;29;20041;-77
2021/12/12 03:24:45;;;;;;;42.53;26.02;;;;;;;;;;4906798;29;20097;-77
2021/12/12 03:27:41;;;;;;;42.78;24.75;;;;;;;;;;4923014;29;20021;-77
2021/12/12 03:30:28;;;;;;;44.88;27.17;;;;;;;;;;4885735;29;20070;-77
2021/12/12 03:32:55;;;;;;;45.35;26.67;;;;;;;;;;4868974;29;20041;-77
2021/12/12 03:35:43;;;;;;;43.13;26.17;;;;;;;;;;4883024;29;20053;-77
2021/12/12 03:38:10;;;;;;;47.63;27.85;;;;;;;;;;4828343;29;20051;-77
2021/12/12 03:40:56;;;;;;;43.25;24.98;;;;;;;;;;4825923;29;20088;-77
2021/12/12 03:43:30;;;;;;;44.78;25.35;;;;;;;;;;4827098;29;20099;-77
2021/12/12 03:45:57;;;;;;;46.38;27.02;;;;;;;;;;4829100;29;20027;-77
2021/12/12 03:48:34;;;;;;;45.97;27.38;;;;;;;;;;4842786;29;20496;-77
2021/12/12 03:51:14;;;;;;;42.95;26.92;;;;;;;;;;4846058;29;20135;-77
2021/12/12 03:54:05;;;;;;;44.33;26.67;;;;;;;;;;4845440;29;20030;-77
2021/12/12 03:57:00;;;;;;;46.75;27.27;;;;;;;;;;4845377;29;20049;-77
2021/12/12 03:59:47;;;;;;;47.30;26.60;;;;;;;;;;4821806;29;20022;-77
2021/12/12 04:02:17;;;;;;;48.45;27.42;;;;;;;;;;4827186;29;20141;-77
2021/12/12 04:05:03;;;;;;;44.03;26.17;;;;;;;;;;4807180;29;20053;-77
2021/12/12 04:07:55;;;;;;;45.15;27.58;;;;;;;;;;4824303;29;20061;-77
2021/12/12 04:10:24;;;;;;;43.85;27.85;;;;;;;;;;4837598;29;20042;-77
2021/12/12 04:12:59;;;;;;;47.08;26.17;;;;;;;;;;4838867;29;20045;-78
2021/12/12 04:15:30;;;;;;;43.00;27.75;;;;;;;;;;4843916;29;20038;-77
2021/12/12 04:17:57;;;;;;;49.72;28.05;;;;;;;;;;4829821;29;20027;-77
2021/12/12 04:20:46;;;;;;;48.03;27.40;;;;;;;;;;4846723;29;20117;-78
2021/12/12 04:23:34;;;;;;;47.47;27.50;;;;;;;;;;4850747;29;20472;-77
2021/12/12 04:26:46;;;;;;;45.90;28.05;;;;;;;;;;4846927;29;20066;-77
2021/12/12 04:31:54;;;;;;;46.10;27.25;;;;;;;;;;5028648;23;20039;-77
2021/12/12 04:34:47;;;;;;;46.95;28.45;;;;;;;;;;4961595;29;20019;-77
2021/12/12 04:37:49;;;;;;;46.22;28.38;;;;;;;;;;4978231;28;20008;-77
2021/12/12 04:41:01;;;;;;;47.97;30.02;;;;;;;;;;4977271;28;20031;-77
2021/12/12 04:43:59;;;;;;;46.83;29.02;;;;;;;;;;4978158;28;20048;-77
2021/12/12 04:49:57;;;;;;;52.97;30.35;;;;;;;;;;4999539;28;20046;-77
2021/12/12 04:52:39;;;;;;;51.75;30.45;;;;;;;;;;4991075;28;20012;-77
2021/12/12 04:55:24;;;;;;;56.92;31.17;;;;;;;;;;4979626;28;20003;-78
2021/12/12 04:58:33;;;;;;;50.00;29.92;;;;;;;;;;4980169;28;20059;-77
2021/12/12 05:01:34;;;;;;;62.65;37.42;;;;;;;;;;4901446;29;20041;-77
2021/12/12 05:04:06;;;;;;;51.83;31.17;;;;;;;;;;4904597;29;20043;-78
2021/12/12 05:06:41;;;;;;;54.10;31.00;;;;;;;;;;4920632;29;20032;-79
2021/12/12 05:09:53;;;;;;;57.72;32.30;;;;;;;;;;4904880;29;20060;-78
2021/12/12 05:12:23;;;;;;;55.85;31.80;;;;;;;;;;4917422;29;20060;-79
2021/12/12 05:15:12;;;;;;;58.25;33.42;;;;;;;;;;4916709;29;20041;-78
2021/12/12 05:17:46;;;;;;;57.95;33.90;;;;;;;;;;5349436;23;20037;31
2021/12/12 05:48:06;;;;;;;68.00;34.38;;;;;;;;;;5157439;23;20065;-79
2021/12/12 05:51:28;;;;;;;57.67;34.15;;;;;;;;;;4868733;29;20049;-78
2021/12/12 05:54:07;;;;;;;66.05;34.95;;;;;;;;;;4807590;29;20047;-78
2021/12/12 05:59:24;;;;;;;71.32;37.20;;;;;;;;;;5258474;23;20066;-79
2021/12/12 06:02:06;;;;;;;75.22;37.55;;;;;;;;;;4999075;28;20054;-80
2021/12/12 06:10:38;;;;;;;78.10;36.88;;;;;;;;;;6090884;23;20040;31
2021/12/12 06:13:29;;;;;;;81.47;41.40;;;;;;;;;;4882188;29;20105;-79
2021/12/12 06:19:21;;;;;;;95.65;44.17;;;;;;;;;;2646318;27;20123;-80
2021/12/12 06:24:48;;;;;;;102.22;42.97;;;;;;;;;;5778395;23;20057;-78
2021/12/12 06:27:34;;;;;;;91.72;43.67;;;;;;;;;;5418798;23;20062;-75
2021/12/12 06:30:01;;;;;;;90.88;41.55;;;;;;;;;;4995267;28;20034;-75
2021/12/12 06:32:30;;;;;;;97.10;43.78;;;;;;;;;;4967292;28;20019;-80
2021/12/12 06:40:53;;;;;;;105.55;44.88;;;0.70;2201.60;;;;;;4972982;28;20040;-88
2021/12/12 06:43:25;;;;;;;110.25;46.90;;;0.40;2201.60;;;;;;4972614;29;20039;-80
2021/12/12 06:45:53;;;;;;;99.47;44.65;;;0.40;2201.60;;;;;;4971158;28;20035;-77
2021/12/12 06:48:24;;;;;;;97.38;44.30;;;0.40;2201.60;;;;;;4969714;28;20058;-81
2021/12/12 06:50:54;;;;;;;97.07;42.75;;;0.20;2201.60;;;;;;4968587;29;20011;-90
2021/12/12 06:53:33;;;;;;;92.78;43.90;;;;;;;;;;4957178;29;20043;-75
2021/12/12 06:55:59;;;;;;;107.97;47.80;;;;;;;;;;4960494;29;20074;-82
2021/12/12 06:58:30;;;;;;;94.22;43.72;;;;;;;;;;4957742;28;20070;-79
2021/12/12 07:01:19;;;;;;;111.88;50.80;;;0.60;2201.60;;;;;;4951692;29;20090;-81
2021/12/12 07:03:46;;;;;;;115.47;53.10;;;0.60;2201.60;;;;;;4948383;28;20111;-76
2021/12/12 07:06:22;;;;;;;106.00;47.80;;;0.40;2201.60;;;;;;4958706;29;20028;-76
2021/12/12 07:08:49;;;;;;;108.78;45.42;;;;;;;;;;4957412;29;20024;-75
2021/12/12 07:11:20;;;;;;;97.05;46.00;;;0.50;2201.60;;;;;;4966134;29;20035;-79
2021/12/12 07:13:48;;;;;;;109.68;46.97;;;0.20;2201.60;;;;;;4960496;28;20118;-77
2021/12/12 07:16:15;;;;;;;101.22;45.83;;;0.10;2201.60;;;;;;4964203;28;20034;-80
2021/12/12 07:18:42;;;;;;;102.93;45.17;;;0.10;2201.60;;;;;;4950759;28;20036;-86
2021/12/12 07:21:11;;;;;;;109.20;46.20;;;0.10;2201.60;;;;;;4956488;28;20054;-79
2021/12/12 07:23:43;;;;;;;112.53;48.72;;;0.40;2201.60;;;;;;4963354;28;20126;-84
2021/12/12 07:26:12;;;;;;;103.30;47.30;;;0.10;2201.60;;;;;;4971190;28;20034;-76
2021/12/12 07:28:43;;;;;;;103.38;46.08;;;0.00;2201.60;;;;;;4962382;29;20024;-76
2021/12/12 07:31:25;;;;;;;97.65;48.25;;;0.10;2201.60;;;;;;4947575;28;20023;-88
2021/12/12 07:34:07;;;;;;;110.70;46.80;;;0.10;2201.60;;;;;;4889321;29;20035;-82
2021/12/12 07:36:51;;;;;;;99.38;42.83;;;0.20;2201.60;;;;;;4945282;28;20047;-80
2021/12/12 07:39:23;;;;;;;104.97;46.92;;;0.10;2201.60;;;;;;4933105;29;20099;-78
2021/12/12 07:41:54;;;;;;;104.10;44.97;;;0.10;2201.60;;;;;;4928089;29;20044;-77
2021/12/12 07:44:24;;;;;;;104.57;45.78;;;0.10;2201.60;;;;;;4947882;29;20099;-81
2021/12/12 07:46:51;;;;;;;99.57;43.78;;;0.00;2201.60;;;;;;4921305;29;20095;-79
2021/12/12 07:49:30;;;;;;;99.57;46.45;;;0.00;2201.60;;;;;;4925453;29;20032;-74
2021/12/12 07:52:16;;;;;;;108.75;48.40;;;0.10;2201.60;;;;;;4947718;29;20019;-79
2021/12/12 07:54:50;;;;;;;101.05;45.75;;;0.00;2201.60;;;;;;4942188;29;20051;-81
2021/12/12 07:57:21;;;;;;;103.40;45.45;;;0.00;2201.60;;;;;;4918817;29;20038;-80
2021/12/12 07:59:53;;;;;;;110.75;45.78;;;0.00;2201.60;;;;;;4929313;29;20050;-86
2021/12/12 08:02:25;;;;;;;128.07;49.70;;;0.00;2201.60;;;;;;4954001;29;20064;-85
2021/12/12 08:04:52;;;;;;;112.20;46.00;;;0.00;2201.60;;;;;;4909436;29;20043;-83
2021/12/12 08:07:28;;;;;;;112.00;49.97;;;0.00;2201.60;;;;;;4926148;29;20032;-76
2021/12/12 08:09:55;;;;;;;123.13;49.40;;;0.00;2201.60;;;;;;4939514;29;20035;-83
2021/12/12 08:12:26;;;;;;;121.40;51.67;;;0.00;2201.60;;;;;;4940479;29;20050;-78
2021/12/12 08:14:54;;;;;;;119.32;50.00;;;12.90;2201.60;;;;;;4926858;29;20044;-77
2021/12/12 08:17:24;;;;;;;121.97;50.42;;;12.90;2201.60;;;;;;4935418;29;20091;-85
2021/12/12 08:19:51;;;;;;;126.13;50.28;;;13.20;2201.60;;;;;;4933124;29;20040;-91
2021/12/12 08:22:19;;;;;;;123.07;51.22;;;0.00;2201.60;;;;;;4929075;29;20032;-92
2021/12/12 08:24:46;;;;;;;120.75;50.80;;;13.00;2201.60;;;;;;4941871;29;20047;-90
2021/12/12 08:27:12;;;;;;;128.95;50.53;;;12.90;2201.60;;;;;;4926970;29;20441;-86
2021/12/12 08:29:39;;;;;;;124.00;50.78;;;13.20;2201.60;;;;;;4926019;29;20098;-89
2021/12/12 08:32:10;;;;;;;137.27;51.83;;;12.90;2201.60;;;;;;4948384;29;20075;-87
2021/12/12 08:34:43;;;;;;;125.75;49.78;;;0.00;2201.60;;;;;;4929253;29;20024;-89
2021/12/12 08:43:13;;;;;;;127.05;51.50;;;12.90;2201.60;;;;;;5284515;23;20057;-88
2021/12/12 08:46:00;;;;;;;138.88;52.33;;;12.90;2201.60;;;;;;4953886;29;20031;-86
2021/12/12 08:48:54;;;;;;;134.82;52.55;;;0.10;2201.60;;;;;;4949780;29;20042;-87
2021/12/12 08:51:32;;;;;;;136.90;52.40;;;0.10;2201.60;;;;;;4880800;29;20044;-92
2021/12/12 08:54:03;;;;;;;129.60;51.45;;;0.10;2201.60;;;;;;4875684;29;20038;-80
2021/12/12 08:56:43;;;;;;;136.18;50.22;;;12.90;2201.60;;;;;;4887445;29;20041;-82
2021/12/12 08:59:14;;;;;;;131.13;50.83;;;12.90;2201.60;;;;;;4868314;29;20108;-82
2021/12/12 09:01:42;;;;;;;145.27;53.25;;;12.90;2201.60;;;;;;4887440;29;20563;-80
2021/12/12 09:04:10;;;;;;;143.63;54.38;;;0.20;2201.60;;;;;;4886208;29;20045;-92
2021/12/12 09:06:48;;;;;;;163.02;54.30;;;12.90;2201.60;;;;;;4898525;29;20040;-92
2021/12/12 09:09:22;;;;;;;157.82;53.53;;;0.00;2201.60;;;;;;4883808;29;20029;-88
2021/12/12 09:12:03;;;;;;;157.00;52.90;;;12.90;2201.60;;;;;;4876429;29;20470;-85
2021/12/12 09:14:54;;;;;;;148.27;53.20;;;0.00;2201.60;;;;;;4889187;29;20028;-81
2021/12/12 09:17:28;;;;;;;137.50;51.97;;;12.90;2201.60;;;;;;4898222;29;20067;-83
2021/12/12 09:20:02;;;;;;;150.77;53.35;;;0.20;2201.60;;;;;;4898440;29;20487;-92
2021/12/12 09:23:18;;;;;;;163.48;54.15;;;0.00;2201.60;;;;;;4931436;29;20028;-92
2021/12/12 09:26:18;;;;;;;137.90;45.80;;;12.90;2201.60;;;;;;4947217;29;20055;-89
2021/12/12 09:29:03;;;;;;;160.18;54.90;;;;;;;;;;4939798;29;20598;-86
2021/12/12 09:31:49;;;;;;;171.10;57.03;;;;;;;;;;4920386;29;20037;-91
2021/12/12 09:34:54;;;;;;;174.80;59.20;;;;;;;;;;4940113;29;20028;-91
2021/12/12 09:37:51;;;;;;;267.00;87.20;;;;;;;;;;4897084;29;20045;-85
2021/12/12 09:40:52;;;;;;;179.05;57.28;;;;;;;;;;4886997;29;20042;-91
2021/12/12 09:47:30;;;;;;;152.10;55.53;;;;;;;;;;4837937;29;20056;-89
2021/12/12 09:53:25;;;;;;;150.35;56.92;;;;;;;;;;4824784;29;20098;-76
2021/12/12 09:56:10;;;;;;;177.50;59.60;;;;;;;;;;4825790;29;20027;-88
2021/12/12 09:59:05;;;;;;;176.60;59.78;;;;;;;;;;4824534;29;20042;-82
2021/12/12 10:01:56;;;;;;;146.77;56.63;;;;;;;;;;4827396;29;20027;-87
2021/12/12 10:04:31;;;;;;;191.25;61.60;;;;;;;;;;4837430;29;20038;-89
2021/12/12 10:07:30;;;;;;;199.95;64.45;;;;;;;;;;4845234;29;20046;-91
2021/12/12 10:10:07;;;;;;;207.10;64.22;;;;;;;;;;4806973;29;20103;-89
2021/12/12 10:12:49;;;;;;;160.80;56.80;;;;;;;;;;4805812;30;20050;-80
2021/12/12 10:15:20;;;;;;;179.98;61.20;;;;;;;;;;4809643;29;20542;-92
2021/12/12 10:17:59;;;;;;;179.80;62.72;;;;;;;;;;4808034;29;20054;-85
2021/12/12 10:20:47;;;;;;;177.75;60.45;;;;;;;;;;4806595;29;20043;-85
2021/12/12 10:23:34;;;;;;;176.73;60.10;;;;;;;;;;4827150;29;20157;-89
2021/12/12 10:26:03;;;;;;;174.18;60.42;;;;;;;;;;4817967;29;20058;-89
2021/12/12 10:28:52;;;;;;;169.32;59.40;;;;;;;;;;4824221;29;20145;-93
2021/12/12 10:31:37;;;;;;;153.80;56.72;;;;;;;;;;4817897;29;20058;-86
2021/12/12 10:34:48;;;;;;;175.85;58.65;;;;;;;;;;4804994;29;20019;-92
2021/12/12 10:37:29;;;;;;;164.50;55.47;;;;;;;;;;4770236;30;20084;-91
2021/12/12 10:40:02;;;;;;;184.63;57.55;;;;;;;;;;4787507;29;20150;-92
2021/12/12 10:42:33;;;;;;;174.25;57.97;;;;;;;;;;4805877;29;20121;-88
2021/12/12 10:45:01;;;;;;;169.90;56.65;;;;;;;;;;4828845;29;20499;-88
2021/12/12 10:47:32;;;;;;;155.77;54.60;;;;;;;;;;4885230;29;20045;-79
2021/12/12 10:50:04;;;;;;;180.23;59.90;;;;;;;;;;4883910;29;20045;-76
2021/12/12 10:52:49;;;;;;;173.63;56.35;;;;;;;;;;4882324;29;20176;-77
2021/12/12 10:55:23;;;;;;;131.60;51.38;;;;;;;;;;4886448;29;20535;-91
2021/12/12 10:58:02;;;;;;;135.73;47.25;;;;;;;;;;4894313;29;20064;-84
2021/12/12 11:00:35;;;;;;;168.98;60.40;;;;;;;;;;4886527;29;20033;-82
2021/12/12 11:03:18;;;;;;;140.55;53.78;;;;;;;;;;4892574;29;20074;-87
2021/12/12 11:06:08;;;;;;;156.32;56.28;;;;;;;;;;4846714;29;20114;-83
2021/12/12 11:08:43;;;;;;;161.60;54.13;;;;;;;;;;5065131;23;20015;-87
2021/12/12 11:11:12;;;;;;;148.63;55.35;;;;;;;;;;4934689;29;20150;-88
2021/12/12 11:14:01;;;;;;;171.07;54.60;;;;;;;;;;4919267;29;20035;-84
2021/12/12 11:16:31;;;;;;;153.52;53.05;;;;;;;;;;4928051;29;20047;-80
2021/12/12 11:19:29;;;;;;;158.07;58.40;;;;;;;;;;4942823;29;20028;-85
2021/12/12 11:21:57;;;;;;;150.48;54.88;;;;;;;;;;4870616;29;20448;-78
2021/12/12 11:24:27;;;;;;;149.80;60.88;;;;;;;;;;4882528;29;20041;-78
2021/12/12 11:26:53;;;;;;;194.32;63.13;;;;;;;;;;4879422;29;20041;-77
2021/12/12 11:29:23;;;;;;;205.48;72.10;;;;;;;;;;4871807;29;20060;-81
2021/12/12 11:31:54;;;;;;;196.93;73.07;;;;;;;;;;4863786;29;20041;-78
2021/12/12 11:34:21;;;;;;;172.07;64.78;;;;;;;;;;4863666;29;20032;-79
2021/12/12 11:36:59;;;;;;;195.45;64.63;;;;;;;;;;4869596;29;20034;-77
2021/12/12 11:39:31;;;;;;;154.63;59.38;;;;;;;;;;4871989;29;20048;-77
2021/12/12 11:42:01;;;;;;;191.07;63.25;;;;;;;;;;4869615;29;20037;-76
2021/12/12 11:44:38;;;;;;;178.88;64.90;;;;;;;;;;4871229;29;20049;-77
2021/12/12 11:47:30;;;;;;;176.00;61.80;;;;;;;;;;4870011;29;20541;-77
2021/12/12 11:49:56;;;;;;;150.60;57.30;;;;;;;;;;4869764;29;20575;-76
2021/12/12 11:52:34;;;;;;;169.93;58.47;;;;;;;;;;4859867;29;20038;-77
2021/12/12 11:55:16;;;;;;;164.65;56.38;;;;;;;;;;4861873;29;20149;-77
2021/12/12 11:57:48;;;;;;;158.32;58.20;;;;;;;;;;4898414;29;20040;-84
2021/12/12 12:00:17;;;;;;;134.00;52.72;;;;;;;;;;4923836;29;20032;-78
2021/12/12 12:03:02;;;;;;;183.98;61.97;;;;;;;;;;4921443;29;20027;-78
2021/12/12 12:05:47;;;;;;;150.38;54.53;;;;;;;;;;4913053;29;20068;-93
2021/12/12 12:08:38;;;;;;;131.50;51.88;;;;;;;;;;4932800;29;20096;-86
2021/12/12 12:12:12;;;;;;;138.80;49.28;;;;;;;;;;4926074;29;20048;-89
2021/12/12 12:14:50;;;;;;;173.23;57.27;;;;;;;;;;4932039;29;20047;-82
2021/12/12 12:17:35;;;;;;;151.70;51.35;;;;;;;;;;4935119;29;20036;-91
2021/12/12 12:20:43;;;;;;;145.85;51.70;;;;;;;;;;4933957;29;20044;-92
2021/12/12 12:28:25;;;;;;;162.85;57.85;;;;;;;;;;5336916;23;20079;-86
2021/12/12 12:33:52;;;;;;;145.65;55.55;;;;;;;;;;5483551;23;20086;-88
2021/12/12 12:36:44;;;;;;;157.65;55.90;;;;;;;;;;4933108;29;20118;-86
2021/12/12 12:39:36;;;;;;;181.68;62.75;;;;;;;;;;4835657;29;20042;-82
2021/12/12 12:42:42;;;;;;;160.27;57.03;;;;;;;;;;4828847;29;20094;-83
2021/12/12 12:45:50;;;;;;;151.27;55.70;;;;;;;;;;4847998;29;20030;-87
2021/12/12 12:48:58;;;;;;;147.40;57.17;;;;;;;;;;4845470;29;20039;-87
2021/12/12 12:51:41;;;;;;;166.63;60.85;;;;;;;;;;4838555;29;20073;-85
2021/12/12 12:54:07;;;;;;;162.48;56.55;;;;;;;;;;4838622;29;20026;-78
2021/12/12 12:56:57;;;;;;;127.07;53.65;;;;;;;;;;4851850;29;20111;-86
2021/12/12 12:59:48;;;;;;;156.68;57.90;;;;;;;;;;4830248;29;20113;-91
2021/12/12 13:02:32;;;;;;;156.52;54.55;;;;;;;;;;4846584;29;20129;-80
2021/12/12 13:05:18;;;;;;;140.48;53.20;;;;;;;;;;4846228;29;20098;-86
2021/12/12 13:08:15;;;;;;;153.75;53.17;;;;;;;;;;4856779;29;20022;-87
2021/12/12 13:11:00;;;;;;;167.70;56.72;;;;;;;;;;4842650;29;20035;-78
2021/12/12 13:13:31;;;;;;;150.70;50.53;;;;;;;;;;4834381;29;20042;-80
2021/12/12 13:16:08;;;;;;;149.13;56.55;;;;;;;;;;4853890;29;20049;-87
2021/12/12 13:18:53;;;;;;;138.68;54.20;;;;;;;;;;4870906;29;20046;-84
2021/12/12 13:21:30;;;;;;;178.93;59.05;;;;;;;;;;4867643;29;20041;-85
2021/12/12 13:24:25;;;;;;;137.38;55.22;;;;;;;;;;4869463;29;20041;-87
2021/12/12 13:27:04;;;;;;;150.40;55.25;;;;;;;;;;4812694;29;20052;-82
2021/12/12 13:30:05;;;;;;;121.35;49.25;;;;;;;;;;4835921;29;20057;-92
2021/12/12 13:32:52;;;;;;;144.80;51.03;;;;;;;;;;4801923;29;20047;-87
2021/12/12 13:35:27;;;;;;;139.55;52.45;;;;;;;;;;4803575;29;20127;-88
2021/12/12 13:38:28;;;;;;;147.80;53.00;;;;;;;;;;4808493;29;20047;-89
2021/12/12 13:41:29;;;;;;;128.05;51.72;;;;;;;;;;4797933;29;20051;-91
2021/12/12 13:44:38;;;;;;;134.32;50.83;;;;;;;;;;4753009;30;20056;-88
2021/12/12 13:47:24;;;;;;;120.70;48.90;;;;;;;;;;4725111;30;20060;-82
2021/12/12 13:49:56;;;;;;;118.45;48.80;;;;;;;;;;4705407;30;20057;-78
2021/12/12 13:52:39;;;;;;;131.23;49.10;;;;;;;;;;4700732;30;20072;-86
2021/12/12 13:55:18;;;;;;;115.07;49.63;;;;;;;;;;4700620;30;20080;-83
2021/12/12 13:57:50;;;;;;;113.07;48.15;;;;;;;;;;4707711;30;20042;-83
2021/12/12 14:00:25;;;;;;;126.55;53.05;;;;;;;;;;4709210;30;20089;-85
2021/12/12 14:03:19;;;;;;;127.32;49.35;;;;;;;;;;4711756;30;20042;-87
2021/12/12 14:05:47;;;;;;;118.82;48.67;;;;;;;;;;4694645;30;20054;-77
2021/12/12 14:08:26;;;;;;;129.35;50.40;;;;;;;;;;4724823;30;20454;-91
2021/12/12 14:10:54;;;;;;;171.00;72.50;;;;;;;;;;4739745;30;20041;-90
2021/12/12 14:13:25;;;;;;;163.82;65.43;;;;;;;;;;4750985;30;20033;-76
2021/12/12 14:15:57;;;;;;;158.50;62.92;;;;;;;;;;4757705;29;20090;-86
2021/12/12 14:18:24;;;;;;;151.02;60.15;;;;;;;;;;4769358;30;20048;-89
2021/12/12 14:20:55;;;;;;;150.65;55.15;;;;;;;;;;4807547;29;20039;-84
2021/12/12 14:23:24;;;;;;;156.63;63.47;;;;;;;;;;4816825;29;20578;-86
2021/12/12 14:25:54;;;;;;;165.73;54.58;;;;;;;;;;4884796;29;20076;-81
2021/12/12 14:28:23;;;;;;;108.18;44.88;;;;;;;;;;4888534;29;20028;-82
2021/12/12 14:30:51;;;;;;;108.45;45.53;;;;;;;;;;4887748;29;20045;-90
2021/12/12 14:33:25;;;;;;;227.07;57.22;;;;;;;;;;4871163;29;20041;-81
2021/12/12 14:35:58;;;;;;;136.18;50.53;;;;;;;;;;4889317;29;20133;-79
2021/12/12 14:38:26;;;;;;;138.45;50.35;;;;;;;;;;4903817;29;20048;-76
2021/12/12 14:40:58;;;;;;;158.10;51.80;;;;;;;;;;4908081;29;20036;-78
2021/12/12 14:43:24;;;;;;;117.03;47.38;;;;;;;;;;4896369;29;20481;-79
2021/12/12 14:46:13;;;;;;;119.32;45.97;;;;;;;;;;4907040;29;20055;-77
2021/12/12 14:48:44;;;;;;;135.52;50.05;;;;;;;;;;4920986;29;20028;-77
2021/12/12 14:51:11;;;;;;;115.35;48.72;;;;;;;;;;4927197;29;20486;-82
2021/12/12 14:53:48;;;;;;;130.80;53.08;;;;;;;;;;4909913;29;21289;-78
2021/12/12 14:56:16;;;;;;;95.22;42.28;;;;;;;;;;4929014;29;20024;-79
2021/12/12 14:58:50;;;;;;;138.30;52.15;;;;;;;;;;4928988;29;20104;-79
2021/12/12 15:01:20;;;;;;;115.47;47.45;;;;;;;;;;4914178;29;20481;-85
2021/12/12 15:03:51;;;;;;;153.45;60.80;;;;;;;;;;4932414;29;20032;-81
2021/12/12 15:06:25;;;;;;;131.43;47.13;;;;;;;;;;4916872;29;20087;-86
2021/12/12 15:09:04;;;;;;;118.35;44.88;;;;;;;;;;4921343;29;20032;-90
2021/12/12 15:11:46;;;;;;;117.05;45.17;;;;;;;;;;4932816;29;20064;-91
2021/12/12 15:14:17;;;;;;;99.32;44.15;;;;;;;;;;4926042;29;20036;-78
2021/12/12 15:16:45;;;;;;;107.50;45.97;;;;;;;;;;4909244;29;20490;-78
2021/12/12 15:19:23;;;;;;;116.20;48.83;;;;;;;;;;4924626;29;21626;-78
2021/12/12 15:21:50;;;;;;;117.57;47.83;;;;;;;;;;4913195;29;20028;-77
2021/12/12 15:24:24;;;;;;;132.25;50.50;;;;;;;;;;4909651;29;20043;-80
2021/12/12 15:27:02;;;;;;;132.77;51.58;;;;;;;;;;4906410;29;20028;-77
2021/12/12 15:29:30;;;;;;;115.45;47.30;;;;;;;;;;4924640;29;20032;-80
2021/12/12 15:31:57;;;;;;;127.07;50.63;;;;;;;;;;4925503;29;20083;-78
2021/12/12 15:34:32;;;;;;;132.27;49.58;;;;;;;;;;4912907;29;20048;-78
2021/12/12 15:37:01;;;;;;;139.85;54.15;;;;;;;;;;4924062;29;20234;-88
2021/12/12 15:39:38;;;;;;;123.70;52.00;;;;;;;;;;4923518;29;20048;-88
2021/12/12 15:42:14;;;;;;;138.70;56.60;;;;;;;;;;4932846;29;20024;-86
2021/12/12 15:44:47;;;;;;;162.35;57.83;;;;;;;;;;4935628;29;20028;-78
2021/12/12 15:47:15;;;;;;;122.10;53.57;;;;;;;;;;4937014;29;20032;-77
2021/12/12 15:49:52;;;;;;;140.65;56.83;;;;;;;;;;4935258;29;20032;-79
2021/12/12 15:52:37;;;;;;;126.90;48.28;;;;;;;;;;4936596;29;20028;-77
2021/12/12 15:55:18;;;;;;;125.28;49.35;;;;;;;;;;4934524;29;20052;-78
2021/12/12 15:57:47;;;;;;;122.47;50.15;;;;;;;;;;4933393;29;20088;-79
2021/12/12 16:00:59;;;;;;;110.13;48.30;;;;;;;;;;4939010;29;20043;-89
2021/12/12 16:03:37;;;;;;;121.93;50.40;;;;;;;;;;4899676;29;20045;-90
2021/12/12 16:06:23;;;;;;;138.35;52.92;;;;;;;;;;4897247;29;20053;-84
2021/12/12 16:08:58;;;;;;;118.55;48.25;;;;;;;;;;4892778;29;20032;-87
2021/12/12 16:11:24;;;;;;;120.25;51.20;;;;;;;;;;4875937;29;20045;-86
2021/12/12 16:13:52;;;;;;;154.35;58.42;;;;;;;;;;4887871;29;20116;-88
2021/12/12 16:16:26;;;;;;;122.25;50.33;;;;;;;;;;4881799;29;20044;-90
2021/12/12 16:19:05;;;;;;;145.75;50.28;;;;;;;;;;4885971;29;20030;-87
2021/12/12 16:21:52;;;;;;;143.25;53.08;;;;;;;;;;4869665;29;20050;-92
2021/12/12 16:24:36;;;;;;;128.55;49.47;;;;;;;;;;4869733;29;20054;-91